createdAt,value
2017-03-16T00:00:03.521Z,99.99
2017-03-16T00:05:02.851Z,99.99
2017-03-16T00:10:03.522Z,99.99
2017-03-16T00:15:03.272Z,99.99
2017-03-16T00:20:02.992Z,99.99
2017-03-16T00:25:03.725Z,99.99
2017-03-16T00:30:03.265Z,99.99
2017-03-16T00:35:02.918Z,99.99
2017-03-16T00:40:03.711Z,99.99
2017-03-16T00:45:03.347Z,99.99
2017-03-16T00:50:03.104Z,99.99
2017-03-16T00:55:02.931Z,99.99
2017-03-16T01:00:03.468Z,99.99
2017-03-16T01:05:03.171Z,99.99
2017-03-16T01:10:02.850Z,99.99
2017-03-16T01:15:03.585Z,99.99
2017-03-16T01:20:03.208Z,99.99
2017-03-16T01:25:02.720Z,99.99
2017-03-16T01:30:03.421Z,99.99
2017-03-16T01:35:03.046Z,99.99
2017-03-16T01:40:02.745Z,99.99
2017-03-16T01:45:03.425Z,99.99
2017-03-16T01:50:03.133Z,99.99
2017-03-16T01:55:02.786Z,99.99
2017-03-16T02:00:03.432Z,99.99
2017-03-16T02:05:03.182Z,99.99
2017-03-16T02:10:02.954Z,99.99
2017-03-16T02:15:03.607Z,99.99
2017-03-16T02:20:03.345Z,99.99
2017-03-16T02:25:03.049Z,99.99
2017-03-16T02:30:03.685Z,99.99
2017-03-16T02:35:03.418Z,99.99
2017-03-16T02:40:03.003Z,99.99
2017-03-16T02:45:03.663Z,99.99
2017-03-16T02:50:03.432Z,99.99
2017-03-16T02:55:02.999Z,99.99
2017-03-16T03:00:03.669Z,99.99
2017-03-16T03:05:03.412Z,99.99
2017-03-16T03:10:03.112Z,99.99
2017-03-16T03:15:03.748Z,99.99
2017-03-16T03:20:03.480Z,99.99
2017-03-16T03:25:03.264Z,99.99
2017-03-16T03:30:02.986Z,99.99
2017-03-16T03:35:03.708Z,99.99
2017-03-16T03:40:03.433Z,99.99
2017-03-16T03:45:03.021Z,99.99
2017-03-16T03:50:03.654Z,99.99
2017-03-16T03:55:03.328Z,99.99
2017-03-16T04:00:02.951Z,99.99
2017-03-16T04:05:03.730Z,99.99
2017-03-16T04:10:03.554Z,99.99
2017-03-16T04:15:03.142Z,99.99
2017-03-16T04:20:02.821Z,99.99
2017-03-16T04:25:03.476Z,99.99
2017-03-16T04:30:03.022Z,99.99
2017-03-16T04:35:03.601Z,99.99
2017-03-16T04:40:03.408Z,99.99
2017-03-16T04:45:03.090Z,99.99
2017-03-16T04:50:03.711Z,99.99
2017-03-16T04:55:03.329Z,99.99
2017-03-16T05:00:02.899Z,99.99
2017-03-16T05:05:03.606Z,99.99
2017-03-16T05:10:03.524Z,99.99
2017-03-16T05:15:03.210Z,99.99
2017-03-16T05:20:02.775Z,99.99
2017-03-16T05:25:03.387Z,99.99
2017-03-16T05:30:03.084Z,99.99
2017-03-16T05:35:03.694Z,99.99
2017-03-16T05:40:03.342Z,99.99
2017-03-16T05:45:02.920Z,99.99
2017-03-16T05:50:03.530Z,99.99
2017-03-16T05:55:03.148Z,99.99
2017-03-16T06:00:02.762Z,99.57
2017-03-16T06:05:03.382Z,99.29
2017-03-16T06:10:03.099Z,99.29
2017-03-16T06:15:02.899Z,98.82
2017-03-16T06:20:03.594Z,99.43
2017-03-16T06:25:03.331Z,99.9
2017-03-16T06:30:03.003Z,99.9
2017-03-16T06:35:03.741Z,99.9
2017-03-16T06:40:03.489Z,99.99
2017-03-16T06:45:03.203Z,99.99
2017-03-16T06:50:02.755Z,99.99
2017-03-16T06:55:03.563Z,99.99
2017-03-16T07:00:03.210Z,99.99
2017-03-16T07:05:02.852Z,99.99
2017-03-16T07:10:03.662Z,99.99
2017-03-16T07:15:03.190Z,99.99
2017-03-16T07:20:02.919Z,99.99
2017-03-16T07:25:03.637Z,99.99
2017-03-16T07:30:03.287Z,99.99
2017-03-16T07:35:02.940Z,99.99
2017-03-16T07:40:02.814Z,99.99
2017-03-16T07:45:03.460Z,99.99
2017-03-16T07:50:03.241Z,99.99
2017-03-16T07:55:02.853Z,99.99
2017-03-16T08:00:03.603Z,99.99
2017-03-16T08:05:03.208Z,99.99
2017-03-16T08:10:03.086Z,99.99
2017-03-16T08:15:02.757Z,99.99
2017-03-16T08:20:03.393Z,99.99
2017-03-16T08:25:03.085Z,99.99
2017-03-16T08:30:02.945Z,99.99
2017-03-16T08:35:03.548Z,99.99
2017-03-16T08:40:02.773Z,99.99
2017-03-16T08:45:03.364Z,99.99
2017-03-16T08:50:03.090Z,99.99
2017-03-16T08:55:02.803Z,99.99
2017-03-16T09:00:03.434Z,99.99
2017-03-16T09:05:03.111Z,99.99
2017-03-16T09:10:02.781Z,99.99
2017-03-16T09:15:03.371Z,97.04
2017-03-16T09:20:02.922Z,96.08
2017-03-16T09:25:03.638Z,93.97
2017-03-16T09:30:03.482Z,88.69
2017-03-16T09:35:03.127Z,86.68
2017-03-16T09:40:02.796Z,85.57
2017-03-16T09:45:03.486Z,80.38
2017-03-16T09:50:03.226Z,82.29
2017-03-16T09:55:02.837Z,79.36
2017-03-16T10:00:03.503Z,77.44
2017-03-16T10:05:03.150Z,78.17
2017-03-16T10:10:02.909Z,77.86
2017-03-16T10:15:02.779Z,74.85
2017-03-16T10:20:03.390Z,74.65
2017-03-16T10:25:03.131Z,72.83
2017-03-16T10:30:02.739Z,72.48
2017-03-16T10:35:03.391Z,68.41
2017-03-16T10:40:03.133Z,71.58
2017-03-16T10:45:02.881Z,69.85
2017-03-16T10:50:03.500Z,68.51
2017-03-16T10:55:03.216Z,63.41
2017-03-16T11:00:02.865Z,61.78
2017-03-16T11:05:03.705Z,60.56
2017-03-16T11:10:03.527Z,59.22
2017-03-16T11:15:03.150Z,56.07
2017-03-16T11:20:02.774Z,57.39
2017-03-16T11:25:03.401Z,57.92
2017-03-16T11:30:02.922Z,58.28
2017-03-16T11:35:03.557Z,59.34
2017-03-16T11:40:03.204Z,60.62
2017-03-16T11:45:02.731Z,61.14
2017-03-16T11:50:03.293Z,60.49
2017-03-16T11:55:03.201Z,59.99
2017-03-16T12:00:02.823Z,58.54
2017-03-16T12:05:03.475Z,56.36
2017-03-16T12:10:03.140Z,54.05
2017-03-16T12:15:02.739Z,53.57
2017-03-16T12:20:03.456Z,50.73
2017-03-16T12:25:03.122Z,52.83
2017-03-16T12:30:02.821Z,53.53
2017-03-16T12:35:03.432Z,53.53
2017-03-16T12:40:03.210Z,52.95
2017-03-16T12:45:03.211Z,52.34
2017-03-16T12:50:03.146Z,52.85
2017-03-16T12:55:03.537Z,53.11
2017-03-16T13:00:02.975Z,53.66
2017-03-16T13:05:03.383Z,55.13
2017-03-16T13:10:02.710Z,54.75
2017-03-16T13:15:03.564Z,56.16
2017-03-16T13:20:03.315Z,56.74
2017-03-16T13:25:02.896Z,58.83
2017-03-16T13:30:03.520Z,59.44
2017-03-16T13:35:03.603Z,60.66
2017-03-16T13:40:03.450Z,61.91
2017-03-16T13:45:03.558Z,62.19
2017-03-16T13:50:03.339Z,63.45
2017-03-16T13:55:02.831Z,63.45
2017-03-16T14:00:03.715Z,63.45
2017-03-16T14:05:03.355Z,63.79
2017-03-16T14:10:03.008Z,64.28
2017-03-16T14:15:02.863Z,64.18
2017-03-16T14:20:02.848Z,65.33
2017-03-16T14:25:03.181Z,64.95
2017-03-16T14:30:03.311Z,65.43
2017-03-16T14:35:02.915Z,65.49
2017-03-16T14:40:03.590Z,65.2
2017-03-16T14:45:03.715Z,65.3
2017-03-16T14:50:03.469Z,65.11
2017-03-16T14:55:03.250Z,65.49
2017-03-16T15:00:03.569Z,66.16
2017-03-16T15:05:03.266Z,67.03
2017-03-16T15:10:03.476Z,67.41
2017-03-16T15:15:03.580Z,67.9
2017-03-16T15:20:02.752Z,68.47
2017-03-16T15:25:02.996Z,67.99
2017-03-16T15:30:03.353Z,68.57
2017-03-16T15:35:03.094Z,68.37
2017-03-16T15:40:03.468Z,68.24
2017-03-16T15:45:03.699Z,68.44
2017-03-16T15:50:03.532Z,68.15
2017-03-16T15:55:03.653Z,68.5
2017-03-16T16:00:03.659Z,66.67
2017-03-16T16:05:03.609Z,65.52
2017-03-16T16:10:02.741Z,65.91
2017-03-16T16:15:02.764Z,64.56
2017-03-16T16:20:03.319Z,64.15
2017-03-16T16:25:03.120Z,66.26
2017-03-16T16:30:03.255Z,67.18
2017-03-16T16:35:03.353Z,67.66
2017-03-16T16:40:03.198Z,67.76
2017-03-16T16:45:02.863Z,68.24
2017-03-16T16:50:02.849Z,68.78
2017-03-16T16:55:03.278Z,69.35
2017-03-16T17:00:03.654Z,69.74
2017-03-16T17:05:02.895Z,70.31
2017-03-16T17:10:03.197Z,70.56
2017-03-16T17:15:02.782Z,71.04
2017-03-16T17:20:03.277Z,71.62
2017-03-16T17:25:03.568Z,72.19
2017-03-16T17:30:03.338Z,73.21
2017-03-16T17:35:03.175Z,74.07
2017-03-16T17:40:03.094Z,74.9
2017-03-16T17:45:03.706Z,75.37
2017-03-16T17:50:03.668Z,75.85
2017-03-16T18:40:03.612Z,81.56
2017-03-16T18:45:03.370Z,82.86
2017-03-16T18:50:03.413Z,82.86
2017-03-16T18:55:03.131Z,83.34
2017-03-16T19:00:03.060Z,84.06
2017-03-16T19:05:03.807Z,85.77
2017-03-16T19:10:03.632Z,85.77
2017-03-16T19:15:03.423Z,85.87
2017-03-16T19:20:03.063Z,86.4
2017-03-16T19:25:02.764Z,88.02
2017-03-16T19:30:03.692Z,89.45
2017-03-16T19:35:03.395Z,91.83
2017-03-16T19:40:03.280Z,94.22
2017-03-16T19:45:03.003Z,96.61
2017-03-16T19:50:03.010Z,97.66
2017-03-16T19:55:03.009Z,99.99
2017-03-16T20:00:03.790Z,99.99
2017-03-16T20:05:03.581Z,99.99
2017-03-16T20:10:03.457Z,99.99
2017-03-16T20:15:03.229Z,99.99
2017-03-16T20:20:02.898Z,99.99
2017-03-16T20:25:03.628Z,99.99
2017-03-16T20:30:03.227Z,99.99
2017-03-16T20:35:02.897Z,99.99
2017-03-16T20:40:03.626Z,99.99
2017-03-16T20:45:03.349Z,99.99
2017-03-16T20:50:03.170Z,99.99
2017-03-16T20:55:02.804Z,99.99
2017-03-16T21:00:03.407Z,99.99
2017-03-16T21:05:03.098Z,99.99
2017-03-16T21:10:03.721Z,99.99
2017-03-16T21:15:03.403Z,99.99
2017-03-16T21:20:03.172Z,99.99
2017-03-16T21:25:02.805Z,99.99
2017-03-16T21:30:03.522Z,99.99
2017-03-16T21:35:03.157Z,99.99
2017-03-16T21:40:02.886Z,99.99
2017-03-16T21:45:03.601Z,99.99
2017-03-16T21:50:03.310Z,99.99
2017-03-16T21:55:03.073Z,99.99
2017-03-16T22:00:02.813Z,99.99
2017-03-16T22:05:03.362Z,99.99
2017-03-16T22:10:02.980Z,99.99
2017-03-16T22:15:03.577Z,99.99
2017-03-16T22:20:03.407Z,99.99
2017-03-16T22:25:03.130Z,99.99
2017-03-16T22:30:02.978Z,99.99
2017-03-16T22:35:03.619Z,99.99
2017-03-16T22:40:03.464Z,99.99
2017-03-16T22:45:03.229Z,99.99
2017-03-16T22:50:02.841Z,99.99
2017-03-16T22:55:03.509Z,99.99
2017-03-16T23:00:03.115Z,99.99
2017-03-16T23:05:02.881Z,99.99
2017-03-16T23:10:03.671Z,99.99
2017-03-16T23:15:03.470Z,99.99
2017-03-16T23:20:03.106Z,99.99
2017-03-16T23:25:03.671Z,99.99
2017-03-16T23:30:03.270Z,99.99
2017-03-16T23:35:02.900Z,99.99
2017-03-16T23:40:03.561Z,99.99
2017-03-16T23:45:03.222Z,99.99
2017-03-16T23:50:02.893Z,99.99
2017-03-16T23:55:03.450Z,99.99
